»·PEaware :: N1MW KSNA-KSNA

N1MW :: KSNA-KSNA

FLIGHT INFORMATION

Flight Status: Arrived
Operator: Privately registered:
United States
More flights under this callsign
Pilot: Max W. (2591)
Aircraft: BEECH AIRCRAFT BARON
(BE58)
More flights by this aircraft type
Origin: KSNA John Wayne-Orange Co
United States
Destination: KSNA John Wayne-Orange Co
United States
More flights between these airports :: More routes between these airports
Route: +SLI
File this flight plan on PilotEdge
Remarks: STAYING CURRENT V1 CUTS SINGLE ENGINE APR
Altitude:
(Current/Filed)
5,000ft
Speed:
(Current/Filed)
450kts
Departed: 06-Dec-18 04:56 PM
Arrived: 06-Dec-18 05:11 PM
Distance/Time
Traveled:
0nm/0:14
Distance/Time
To Go:
Arrived

Flight Plot

Page will automatically refresh every two minutes.


Map Options




Map Legend


Flown Route
Filed Route
Departure Airport
Arrival Airport
Navaid (VOR, NDB)
Fix

Horizontal Profiles

Position Reports

Time Latitude Longitude Heading Altitude Ground
Speed
06-Dec-18 16:15 33.676726 -117.870570 115 60ft 0kts
06-Dec-18 16:16 33.676726 -117.870570 115 60ft 0kts
06-Dec-18 16:17 33.676726 -117.870570 115 60ft 0kts
06-Dec-18 16:18 33.676726 -117.870570 115 60ft 0kts
06-Dec-18 16:19 33.676726 -117.870570 115 60ft 0kts
06-Dec-18 16:20 33.676726 -117.870570 115 60ft 0kts
06-Dec-18 16:20 33.676726 -117.870570 115 60ft 0kts
06-Dec-18 16:22 33.676726 -117.870570 115 60ft 0kts
06-Dec-18 16:23 33.676726 -117.870570 115 60ft 0kts
06-Dec-18 16:24 33.676726 -117.870570 115 60ft 0kts
06-Dec-18 16:25 33.676726 -117.870570 115 60ft 0kts
06-Dec-18 16:25 33.676726 -117.870570 115 60ft 0kts
06-Dec-18 16:27 33.676726 -117.870570 115 60ft 0kts
06-Dec-18 16:27 33.676726 -117.870570 115 60ft 0kts
06-Dec-18 16:29 33.676726 -117.870570 115 60ft 0kts
06-Dec-18 16:29 33.676726 -117.870570 115 60ft 0kts
06-Dec-18 16:30 33.676726 -117.870570 115 60ft 0kts
06-Dec-18 16:31 33.676726 -117.870570 115 60ft 0kts
06-Dec-18 16:32 33.676726 -117.870570 115 60ft 0kts
06-Dec-18 16:33 33.676726 -117.870570 115 60ft 0kts
06-Dec-18 16:34 33.676726 -117.870570 115 60ft 0kts
06-Dec-18 16:35 33.676726 -117.870570 115 60ft 0kts
06-Dec-18 16:36 33.676726 -117.870570 115 60ft 0kts
06-Dec-18 16:37 33.676726 -117.870570 115 60ft 0kts
06-Dec-18 16:38 33.676726 -117.870570 115 60ft 0kts
06-Dec-18 16:39 33.676726 -117.870570 115 60ft 0kts
06-Dec-18 16:40 33.676726 -117.870570 115 60ft 0kts
06-Dec-18 16:41 33.676726 -117.870570 115 60ft 0kts
06-Dec-18 16:42 33.676726 -117.870570 115 60ft 0kts
06-Dec-18 16:43 33.676726 -117.870570 115 60ft 0kts
06-Dec-18 16:44 33.676726 -117.870570 115 60ft 0kts
06-Dec-18 16:45 33.676726 -117.870570 115 60ft 0kts
06-Dec-18 16:46 33.676726 -117.870570 115 60ft 0kts
06-Dec-18 16:47 33.676726 -117.870570 115 60ft 0kts
06-Dec-18 16:48 33.676726 -117.870570 115 60ft 0kts
06-Dec-18 16:49 33.676726 -117.870570 115 60ft 0kts
06-Dec-18 16:50 33.676726 -117.870570 115 60ft 0kts
06-Dec-18 16:51 33.676725 -117.870567 115 60ft 0kts
06-Dec-18 16:52 33.676725 -117.870567 115 60ft 0kts
06-Dec-18 16:53 33.676499 -117.870172 152 60ft 15kts
06-Dec-18 16:54 33.669689 -117.874066 206 60ft 27kts
06-Dec-18 16:55 33.672066 -117.871144 30 60ft 82kts
06-Dec-18 16:56 33.692481 -117.879903 260 1315ft 126kts
06-Dec-18 16:57 33.692192 -117.921791 350 2154ft 147kts
06-Dec-18 16:58 33.730502 -117.914753 14 2978ft 149kts
06-Dec-18 16:59 33.773632 -117.897510 19 2900ft 161kts
06-Dec-18 17:00 33.809959 -117.880992 17 2985ft 127kts
06-Dec-18 17:01 33.839802 -117.864100 38 3020ft 115kts
06-Dec-18 17:02 33.866172 -117.838276 43 2907ft 143kts
06-Dec-18 17:03 33.899734 -117.803151 43 2978ft 174kts
06-Dec-18 17:04 33.881676 -117.758033 135 2957ft 181kts
06-Dec-18 17:05 33.841050 -117.766423 200 2911ft 147kts
06-Dec-18 17:06 33.808440 -117.786600 203 2914ft 132kts
06-Dec-18 17:07 33.771650 -117.807608 206 2285ft 154kts
06-Dec-18 17:08 33.730399 -117.834343 202 1194ft 179kts
06-Dec-18 17:09 33.691283 -117.858939 204 316ft 132kts
06-Dec-18 17:10 33.675962 -117.869647 275 60ft 0kts

Navigation Log

Ident Type
Flight plan parsing failed, navigation log unavailable